Nampa, Canada
Current Conditions -  °F | °C
As of 1:00 PM on Saturday 20 Dec 2014 (Local Time) from CYPE Reporting Station
Scattered Clouds Scattered Clouds  
Wind Chill: 18°   Ceiling: Unl
Heat Index: 18°   Visibility: 15mi
Dew Point: 14°   Wind: 3mph
Humidity: 86%   Direction: 350°N
Pressure: 29.47"   Gusts: NA
Location:  56.03°N, 117.12°W
Report Text: CYPE 202000Z 35003KT 15SM SCT250 M08/M10 A2947 RMK CI4 SLP020
Loading
Personal Weather Stations






























Interactive Weather Map New forecast layout! Learn more

10-Day Weather Forecast

Advertisements
Track Severe Weather on mobile